createdAt,value
2022-10-05T00:00:51.458Z,9.681028
2022-10-05T00:01:51.492Z,9.681256
2022-10-05T00:02:51.448Z,9.681224
2022-10-05T00:03:51.484Z,9.681124
2022-10-05T00:04:51.493Z,9.681285
2022-10-05T00:05:51.426Z,9.680992
2022-10-05T00:06:51.418Z,9.680952
2022-10-05T00:07:51.413Z,9.681140
2022-10-05T00:08:51.403Z,9.681289
2022-10-05T00:09:51.427Z,9.681206
2022-10-05T00:10:51.392Z,9.681043
2022-10-05T00:11:51.375Z,9.681127
2022-10-05T00:12:51.397Z,9.680914
2022-10-05T00:13:51.374Z,9.680889
2022-10-05T00:14:51.368Z,9.681162
2022-10-05T00:15:51.388Z,9.681020
2022-10-05T00:16:51.720Z,9.680946
2022-10-05T00:17:51.353Z,9.681283
2022-10-05T00:18:51.365Z,9.680986
2022-10-05T00:19:51.334Z,9.681055
2022-10-05T00:20:51.331Z,9.681143
2022-10-05T00:21:51.330Z,9.681112
2022-10-05T00:22:51.311Z,9.681088
2022-10-05T00:23:51.294Z,9.681111
2022-10-05T00:24:51.307Z,9.680920
2022-10-05T00:25:51.283Z,9.681169
2022-10-05T00:26:56.899Z,9.680919
2022-10-05T00:27:52.323Z,9.680911
2022-10-05T00:28:51.258Z,9.681149
2022-10-05T00:29:51.248Z,9.681105
2022-10-05T00:30:51.247Z,9.681218
2022-10-05T00:31:51.312Z,9.681258
2022-10-05T00:32:53.017Z,9.681191
2022-10-05T00:33:51.216Z,9.681284
2022-10-05T00:34:51.219Z,9.681222
2022-10-05T00:35:51.221Z,9.681284
2022-10-05T00:36:51.222Z,9.681282
2022-10-05T00:37:51.188Z,9.681477
2022-10-05T00:38:51.186Z,9.681190
2022-10-05T00:39:51.185Z,9.681191
2022-10-05T00:40:51.169Z,9.681164
2022-10-05T00:41:51.162Z,9.681213
2022-10-05T00:42:51.173Z,9.680949
2022-10-05T00:43:51.148Z,9.681105
2022-10-05T00:44:51.139Z,9.681052
2022-10-05T00:45:51.177Z,9.680949
2022-10-05T00:46:51.132Z,9.681006
2022-10-05T00:47:51.124Z,9.680836
2022-10-05T00:48:51.134Z,9.681211
2022-10-05T00:49:51.125Z,9.681190
2022-10-05T00:50:51.104Z,9.680985
2022-10-05T00:51:51.089Z,9.681058
2022-10-05T00:52:51.089Z,9.681136
2022-10-05T00:53:51.096Z,9.681189
2022-10-05T00:54:51.071Z,9.681516
2022-10-05T00:55:51.082Z,9.681160
2022-10-05T00:56:51.068Z,9.680981
2022-10-05T00:57:51.047Z,9.681009
2022-10-05T00:58:51.034Z,9.681074
2022-10-05T00:59:51.039Z,9.680820
2022-10-05T01:00:51.065Z,9.681092
2022-10-05T01:01:51.096Z,9.681124
2022-10-05T01:02:51.097Z,9.681113
2022-10-05T01:03:51.013Z,9.680861
2022-10-05T01:04:51.007Z,9.681051
2022-10-05T01:05:50.992Z,9.680956
2022-10-05T01:06:51.009Z,9.680977
2022-10-05T01:07:50.976Z,9.681304
2022-10-05T01:08:50.978Z,9.681402
2022-10-05T01:09:50.957Z,9.681239
2022-10-05T01:10:50.948Z,9.681046
2022-10-05T01:11:50.930Z,9.680996
2022-10-05T01:12:50.974Z,9.681414
2022-10-05T01:13:50.933Z,9.681807
2022-10-05T01:14:50.921Z,9.681757
2022-10-05T01:15:50.946Z,9.681478
2022-10-05T01:16:51.322Z,9.680456
2022-10-05T01:17:50.904Z,9.680464
2022-10-05T01:18:50.909Z,9.680147
2022-10-05T01:19:50.890Z,9.680152
2022-10-05T01:20:50.902Z,9.680420
2022-10-05T01:21:50.878Z,9.680121
2022-10-05T01:22:50.875Z,9.680025
2022-10-05T01:23:50.874Z,9.679479
2022-10-05T01:24:50.869Z,9.679536
2022-10-05T01:25:50.858Z,9.680017
2022-10-05T01:26:50.848Z,9.680042
2022-10-05T01:27:50.826Z,9.680362
2022-10-05T01:28:50.837Z,9.680756
2022-10-05T01:29:50.823Z,9.681123
2022-10-05T01:30:50.811Z,9.681831
2022-10-05T01:31:50.850Z,9.681898
2022-10-05T01:32:50.799Z,9.682458
2022-10-05T01:33:50.783Z,9.682281
2022-10-05T01:34:50.808Z,9.681807
2022-10-05T01:35:50.771Z,9.681254
2022-10-05T01:36:50.767Z,9.681324
2022-10-05T01:37:50.789Z,9.681380
2022-10-05T01:38:50.776Z,9.681269
2022-10-05T01:39:50.742Z,9.680824
2022-10-05T01:40:50.766Z,9.680828
2022-10-05T01:41:50.736Z,9.681145
2022-10-05T01:42:50.726Z,9.681071
2022-10-05T01:43:50.747Z,9.681255
2022-10-05T01:44:50.723Z,9.681239
2022-10-05T01:45:50.791Z,9.681266
2022-10-05T01:46:50.697Z,9.681162
2022-10-05T01:47:50.703Z,9.681184
2022-10-05T01:48:50.691Z,9.681012
2022-10-05T01:49:50.693Z,9.680759
2022-10-05T01:50:50.668Z,9.680774
2022-10-05T01:51:50.659Z,9.680923
2022-10-05T01:52:50.661Z,9.680819
2022-10-05T01:53:50.645Z,9.681391
2022-10-05T01:54:50.658Z,9.681330
2022-10-05T01:55:50.634Z,9.680768
2022-10-05T01:56:50.626Z,9.680491
2022-10-05T01:57:50.626Z,9.680716
2022-10-05T01:58:50.617Z,9.680491
2022-10-05T01:59:50.606Z,9.680815
2022-10-05T02:00:50.651Z,9.680699
2022-10-05T02:01:50.615Z,9.680842
2022-10-05T02:02:50.577Z,9.681609
2022-10-05T02:03:50.567Z,9.681754
2022-10-05T02:05:02.015Z,9.681226
2022-10-05T02:05:51.588Z,9.680567
2022-10-05T02:06:50.552Z,9.680394
2022-10-05T02:07:50.548Z,9.680660
2022-10-05T02:08:50.537Z,9.681355
2022-10-05T02:09:50.526Z,9.681118
2022-10-05T02:10:50.529Z,9.681094
2022-10-05T02:11:50.537Z,9.680876
2022-10-05T02:12:50.507Z,9.680943
2022-10-05T02:13:50.495Z,9.680844
2022-10-05T02:14:50.495Z,9.680951
2022-10-05T02:15:50.545Z,9.681183
2022-10-05T02:16:50.486Z,9.681058
2022-10-05T02:17:50.496Z,9.681115
2022-10-05T02:18:50.478Z,9.681249
2022-10-05T02:19:50.470Z,9.681220
2022-10-05T02:20:50.468Z,9.681212
2022-10-05T02:21:50.456Z,9.681060
2022-10-05T02:22:50.445Z,9.680885
2022-10-05T02:23:50.454Z,9.681072
2022-10-05T02:24:50.428Z,9.681163
2022-10-05T02:25:50.429Z,9.681290
2022-10-05T02:26:50.444Z,9.681576
2022-10-05T02:27:50.412Z,9.681309
2022-10-05T02:28:50.408Z,9.680952
2022-10-05T02:29:50.398Z,9.680757
2022-10-05T02:30:50.395Z,9.681272
2022-10-05T02:31:50.467Z,9.681029
2022-10-05T02:32:50.399Z,9.681379
2022-10-05T02:33:50.378Z,9.681222
2022-10-05T02:34:50.369Z,9.681256
2022-10-05T02:35:50.346Z,9.681226
2022-10-05T02:36:50.364Z,9.681156
2022-10-05T02:37:50.331Z,9.681263
2022-10-05T02:38:50.328Z,9.680918
2022-10-05T02:39:50.343Z,9.680816
2022-10-05T02:40:50.321Z,9.680851
2022-10-05T02:41:50.311Z,9.681056
2022-10-05T02:42:50.301Z,9.681083
2022-10-05T02:43:50.317Z,9.681096
2022-10-05T02:44:50.299Z,9.680981
2022-10-05T02:45:50.375Z,9.681242
2022-10-05T02:46:56.072Z,9.680965
2022-10-05T02:47:51.277Z,9.681087
2022-10-05T02:48:50.262Z,9.680902
2022-10-05T02:49:50.256Z,9.681368
2022-10-05T02:50:50.258Z,9.681340
2022-10-05T02:51:50.293Z,9.681214
2022-10-05T02:52:50.234Z,9.681537
2022-10-05T02:53:50.229Z,9.681703
2022-10-05T02:54:50.222Z,9.681003
2022-10-05T02:55:50.216Z,9.681186
2022-10-05T02:56:50.210Z,9.681053
2022-10-05T02:57:50.220Z,9.681192
2022-10-05T02:58:50.194Z,9.681276
2022-10-05T02:59:50.206Z,9.681612
2022-10-05T03:00:50.223Z,9.681625
2022-10-05T03:01:50.220Z,9.681510
2022-10-05T03:02:50.173Z,9.681073
2022-10-05T03:03:50.193Z,9.681134
2022-10-05T03:04:50.174Z,9.681529
2022-10-05T03:05:50.154Z,9.681231
2022-10-05T03:06:50.138Z,9.681171
2022-10-05T03:07:50.134Z,9.681126
2022-10-05T03:08:50.130Z,9.681281
2022-10-05T03:09:50.139Z,9.681129
2022-10-05T03:10:50.126Z,9.681418
2022-10-05T03:11:50.107Z,9.681388
2022-10-05T03:12:50.107Z,9.681335
2022-10-05T03:13:50.095Z,9.681222
2022-10-05T03:14:50.109Z,9.681147
2022-10-05T03:15:50.122Z,9.681260
2022-10-05T03:16:50.078Z,9.681487
2022-10-05T03:17:50.088Z,9.681248
2022-10-05T03:18:50.066Z,9.681078
2022-10-05T03:19:50.079Z,9.681064
2022-10-05T03:20:50.049Z,9.681056
2022-10-05T03:21:50.045Z,9.680842
2022-10-05T03:22:50.043Z,9.681281
2022-10-05T03:23:51.839Z,9.681256
2022-10-05T03:24:50.035Z,9.681452
2022-10-05T03:25:50.017Z,9.681149
2022-10-05T03:26:50.016Z,9.681271
2022-10-05T03:27:50.016Z,9.681417
2022-10-05T03:28:50.011Z,9.681175
2022-10-05T03:29:49.988Z,9.680984
2022-10-05T03:30:50.036Z,9.681387
2022-10-05T03:31:49.979Z,9.680923
2022-10-05T03:32:49.982Z,9.681183
2022-10-05T03:33:49.984Z,9.680646
2022-10-05T03:34:49.967Z,9.680398
2022-10-05T03:35:49.959Z,9.680679
2022-10-05T03:36:49.946Z,9.681148
2022-10-05T03:37:49.959Z,9.681176
2022-10-05T03:38:49.937Z,9.681108
2022-10-05T03:39:49.924Z,9.680045
2022-10-05T03:40:49.916Z,9.680887
2022-10-05T03:41:49.918Z,9.680343
2022-10-05T03:42:49.909Z,9.680019
2022-10-05T03:43:49.911Z,9.680019
2022-10-05T03:44:49.894Z,9.680019
2022-10-05T03:45:49.913Z,9.680019
2022-10-05T03:46:50.181Z,9.680019
2022-10-05T03:47:49.877Z,9.679426
2022-10-05T03:48:49.890Z,9.679193
2022-10-05T03:49:49.876Z,9.679749
2022-10-05T03:50:49.852Z,9.679663
2022-10-05T03:51:49.853Z,9.679663
2022-10-05T03:52:49.837Z,9.679663
2022-10-05T03:53:49.827Z,9.679977
2022-10-05T03:54:49.845Z,9.679977
2022-10-05T03:55:49.823Z,9.680984
2022-10-05T03:56:50.081Z,9.680984
2022-10-05T03:57:49.801Z,9.680984
2022-10-05T03:58:49.811Z,9.680031
2022-10-05T03:59:49.797Z,9.680593
2022-10-05T04:00:49.811Z,9.680593
2022-10-05T04:01:49.829Z,9.680593
2022-10-05T04:02:49.828Z,9.680593
2022-10-05T04:03:49.781Z,9.680593
2022-10-05T04:04:49.793Z,9.680593
2022-10-05T04:05:49.796Z,9.680593
2022-10-05T04:06:50.065Z,9.680593
2022-10-05T04:07:49.769Z,9.680593
2022-10-05T04:08:49.741Z,9.680593
2022-10-05T04:09:49.763Z,9.680593
2022-10-05T04:10:49.727Z,9.680593
2022-10-05T04:11:49.721Z,9.680593
2022-10-05T04:12:49.734Z,9.680593
2022-10-05T04:13:49.698Z,9.681860
2022-10-05T04:14:49.703Z,9.681766
2022-10-05T04:15:49.730Z,9.681766
2022-10-05T04:16:49.890Z,9.681766
2022-10-05T04:17:49.699Z,9.681766
2022-10-05T04:18:49.680Z,9.681766
2022-10-05T04:19:49.667Z,9.681766
2022-10-05T04:20:49.656Z,9.681766
2022-10-05T04:21:49.662Z,9.681766
2022-10-05T04:22:49.646Z,9.681766
2022-10-05T04:23:49.655Z,9.681766
2022-10-05T04:24:49.633Z,9.681766
2022-10-05T04:25:49.622Z,9.681766
2022-10-05T04:26:49.821Z,9.681766
2022-10-05T04:27:49.617Z,9.681766
2022-10-05T04:28:49.622Z,9.681766
2022-10-05T04:29:49.605Z,9.681766
2022-10-05T04:30:49.618Z,9.681766
2022-10-05T04:31:49.632Z,9.681766
2022-10-05T04:32:49.571Z,9.681766
2022-10-05T04:33:49.576Z,9.681766
2022-10-05T04:34:49.562Z,9.681766
2022-10-05T04:35:49.555Z,9.681766
2022-10-05T04:36:49.614Z,9.681247
2022-10-05T04:37:49.556Z,9.681487
2022-10-05T04:38:49.534Z,9.681487
2022-10-05T04:39:49.525Z,9.681487
2022-10-05T04:40:49.536Z,9.681487
2022-10-05T04:41:49.523Z,9.682367
2022-10-05T04:42:49.505Z,9.681297
2022-10-05T04:43:49.504Z,9.680924
2022-10-05T04:44:49.494Z,9.680955
2022-10-05T04:45:49.493Z,9.681111
2022-10-05T04:46:49.988Z,9.681123
2022-10-05T04:47:49.545Z,9.681216
2022-10-05T04:48:49.510Z,9.681014
2022-10-05T04:49:49.458Z,9.680890
2022-10-05T04:50:49.452Z,9.680842
2022-10-05T04:51:51.248Z,9.680851
2022-10-05T04:52:49.461Z,9.680844
2022-10-05T04:53:49.438Z,9.681078
2022-10-05T04:54:49.428Z,9.680986
2022-10-05T04:55:49.421Z,9.681058
2022-10-05T04:56:49.767Z,9.680883
2022-10-05T04:57:49.409Z,9.681008
2022-10-05T04:58:49.421Z,9.681222
2022-10-05T04:59:49.401Z,9.681184
2022-10-05T05:00:49.455Z,9.681211
2022-10-05T05:01:49.383Z,9.681188
2022-10-05T05:02:49.386Z,9.681083
2022-10-05T05:03:49.417Z,9.681022
2022-10-05T05:04:51.864Z,9.681076
2022-10-05T05:06:15.443Z,9.681337
2022-10-05T05:06:50.369Z,9.681170
2022-10-05T05:07:49.362Z,9.681343
2022-10-05T05:08:49.354Z,9.680234
2022-10-05T05:09:49.346Z,9.680955
2022-10-05T05:10:49.325Z,9.681599
2022-10-05T05:11:49.338Z,9.682617
2022-10-05T05:12:49.317Z,9.682082
2022-10-05T05:13:49.304Z,9.681085
2022-10-05T05:14:49.294Z,9.681293
2022-10-05T05:15:49.336Z,9.681584
2022-10-05T05:16:49.577Z,9.681604
2022-10-05T05:17:49.286Z,9.681471
2022-10-05T05:18:49.271Z,9.681433
2022-10-05T05:19:49.275Z,9.681325
2022-10-05T05:20:49.270Z,9.681080
2022-10-05T05:21:49.251Z,9.681355
2022-10-05T05:22:49.262Z,9.681252
2022-10-05T05:23:49.234Z,9.680948
2022-10-05T05:24:49.237Z,9.681090
2022-10-05T05:25:49.246Z,9.680585
2022-10-05T05:26:49.528Z,9.680597
2022-10-05T05:27:49.228Z,9.681037
2022-10-05T05:28:49.220Z,9.681540
2022-10-05T05:29:49.199Z,9.681384
2022-10-05T05:30:49.199Z,9.681271
2022-10-05T05:31:49.250Z,9.680954
2022-10-05T05:32:49.187Z,9.680719
2022-10-05T05:33:49.188Z,9.681209
2022-10-05T05:34:49.157Z,9.681004
2022-10-05T05:35:49.166Z,9.680867
2022-10-05T05:36:49.475Z,9.681320
2022-10-05T05:37:49.149Z,9.681317
2022-10-05T05:38:49.144Z,9.681215
2022-10-05T05:39:49.189Z,9.681189
2022-10-05T05:40:49.151Z,9.681268
2022-10-05T05:41:49.124Z,9.681040
2022-10-05T05:42:49.112Z,9.680972
2022-10-05T05:43:49.106Z,9.681094
2022-10-05T05:44:49.143Z,9.681131
2022-10-05T05:45:49.114Z,9.681077
2022-10-05T05:47:03.636Z,9.681267
2022-10-05T05:47:50.136Z,9.681055
2022-10-05T05:48:49.077Z,9.681081
2022-10-05T05:49:49.089Z,9.681183
2022-10-05T05:50:49.165Z,9.681315
2022-10-05T05:51:49.086Z,9.681216
2022-10-05T05:52:49.066Z,9.680800
2022-10-05T05:53:49.046Z,9.681101
2022-10-05T05:54:49.058Z,9.681515
2022-10-05T05:55:49.040Z,9.681190
2022-10-05T05:56:49.232Z,9.681206
2022-10-05T05:57:49.039Z,9.681515
2022-10-05T05:58:49.027Z,9.681254
2022-10-05T05:59:49.024Z,9.681072
2022-10-05T06:00:49.013Z,9.681292
2022-10-05T06:01:49.131Z,9.681061
2022-10-05T06:02:49.128Z,9.681353
2022-10-05T06:03:48.985Z,9.680918
2022-10-05T06:04:48.980Z,9.681014
2022-10-05T06:05:48.968Z,9.680902
2022-10-05T06:06:49.520Z,9.681323
2022-10-05T06:07:48.981Z,9.681147
2022-10-05T06:08:48.950Z,9.681041
2022-10-05T06:09:48.975Z,9.680756
2022-10-05T06:10:48.945Z,9.681033
2022-10-05T06:11:48.931Z,9.681252
2022-10-05T06:12:48.951Z,9.681191
2022-10-05T06:13:48.934Z,9.681120
2022-10-05T06:14:48.939Z,9.680693
2022-10-05T06:15:48.907Z,9.680768
2022-10-05T06:16:49.326Z,9.681214
2022-10-05T06:17:48.901Z,9.681067
2022-10-05T06:18:48.923Z,9.680949
2022-10-05T06:19:48.881Z,9.680932
2022-10-05T06:20:48.880Z,9.681176
2022-10-05T06:21:48.890Z,9.681076
2022-10-05T06:22:48.871Z,9.681067
2022-10-05T06:23:48.864Z,9.681046
2022-10-05T06:24:48.861Z,9.681511
2022-10-05T06:25:48.882Z,9.681522
2022-10-05T06:26:49.204Z,9.681163
2022-10-05T06:27:48.846Z,9.681165
2022-10-05T06:28:48.838Z,9.681260
2022-10-05T06:29:48.825Z,9.680997
2022-10-05T06:30:48.818Z,9.681286
2022-10-05T06:31:48.885Z,9.680980
2022-10-05T06:32:48.803Z,9.681348
2022-10-05T06:33:48.815Z,9.681615
2022-10-05T06:34:48.796Z,9.681748
2022-10-05T06:35:48.798Z,9.681712
2022-10-05T06:36:49.182Z,9.681452
2022-10-05T06:37:48.760Z,9.681291
2022-10-05T06:38:48.788Z,9.681097
2022-10-05T06:39:48.748Z,9.681014
2022-10-05T06:40:48.759Z,9.680955
2022-10-05T06:41:48.739Z,9.681115
2022-10-05T06:42:48.729Z,9.681335
2022-10-05T06:43:48.745Z,9.681182
2022-10-05T06:44:48.723Z,9.681310
2022-10-05T06:45:48.754Z,9.681297
2022-10-05T06:46:49.076Z,9.681106
2022-10-05T06:47:48.687Z,9.681091
2022-10-05T06:48:48.709Z,9.681138
2022-10-05T06:49:48.678Z,9.680718
2022-10-05T06:50:48.675Z,9.680461
2022-10-05T06:51:48.661Z,9.680933
2022-10-05T06:52:48.665Z,9.681275
2022-10-05T06:53:48.644Z,9.681112
2022-10-05T06:54:48.641Z,9.681043
2022-10-05T06:55:48.629Z,9.681599
2022-10-05T06:56:49.216Z,9.681594
2022-10-05T06:57:48.612Z,9.681013
2022-10-05T06:58:48.627Z,9.680861
2022-10-05T06:59:48.600Z,9.681220
2022-10-05T07:00:48.619Z,9.681322
2022-10-05T07:01:48.905Z,9.681197
2022-10-05T07:02:48.576Z,9.681024
2022-10-05T07:03:48.593Z,9.681344
2022-10-05T07:04:48.565Z,9.681252
2022-10-05T07:05:48.547Z,9.680500
2022-10-05T07:06:48.551Z,9.680775
2022-10-05T07:07:48.527Z,9.681167
2022-10-05T07:08:48.549Z,9.681266
2022-10-05T07:09:48.516Z,9.681276
2022-10-05T07:10:48.521Z,9.681240
2022-10-05T07:11:54.347Z,9.681002
2022-10-05T07:12:49.512Z,9.680550
2022-10-05T07:13:48.507Z,9.681243
2022-10-05T07:14:48.488Z,9.681412
2022-10-05T07:15:48.510Z,9.680877
2022-10-05T07:16:48.589Z,9.681158
2022-10-05T07:17:48.462Z,9.681298
2022-10-05T07:18:48.461Z,9.681000
2022-10-05T07:19:48.442Z,9.680867
2022-10-05T07:20:49.446Z,9.681396
2022-10-05T07:21:48.829Z,9.681388
2022-10-05T07:22:48.461Z,9.681735
2022-10-05T07:23:48.415Z,9.681631
2022-10-05T07:24:48.418Z,9.681240
2022-10-05T07:25:48.407Z,9.681051
2022-10-05T07:26:48.819Z,9.681188
2022-10-05T07:27:51.012Z,9.680926
2022-10-05T07:28:48.407Z,9.679704
2022-10-05T07:29:48.377Z,9.680706
2022-10-05T07:30:48.449Z,9.680977
2022-10-05T07:31:48.365Z,9.680277
2022-10-05T07:32:48.380Z,9.681476
2022-10-05T07:33:48.355Z,9.680938
2022-10-05T07:34:48.342Z,9.680825
2022-10-05T07:35:48.330Z,9.680608
2022-10-05T07:36:53.707Z,9.680841
2022-10-05T07:37:49.345Z,9.680972
2022-10-05T07:38:48.313Z,9.681746
2022-10-05T07:40:00.286Z,9.681742
2022-10-05T07:40:49.302Z,9.681742
2022-10-05T07:41:48.290Z,9.680036
2022-10-05T07:42:52.104Z,9.680871
2022-10-05T07:44:05.005Z,9.680871
2022-10-05T07:44:49.263Z,9.680768
2022-10-05T07:45:48.383Z,9.681317
2022-10-05T07:46:48.548Z,9.681747
2022-10-05T07:47:48.235Z,9.681783
2022-10-05T07:48:48.232Z,9.681461
2022-10-05T07:49:48.209Z,9.681974
2022-10-05T07:50:48.220Z,9.681679
2022-10-05T07:51:48.257Z,9.681650
2022-10-05T07:52:48.207Z,9.682145
2022-10-05T07:53:48.208Z,9.681580
2022-10-05T07:54:48.181Z,9.681211
2022-10-05T07:55:48.185Z,9.681870
2022-10-05T07:56:48.579Z,9.681991
2022-10-05T07:57:48.167Z,9.682548
2022-10-05T07:58:48.176Z,9.681658
2022-10-05T07:59:48.134Z,9.681810
2022-10-05T08:00:48.165Z,9.681821
2022-10-05T08:01:48.164Z,9.681771
2022-10-05T08:02:48.148Z,9.681771
2022-10-05T08:03:48.097Z,9.681007
2022-10-05T08:04:48.086Z,9.681193
2022-10-05T08:05:48.079Z,9.681047
2022-10-05T08:06:48.740Z,9.681148
2022-10-05T08:07:48.066Z,9.681257
2022-10-05T08:08:48.052Z,9.681216
2022-10-05T08:09:48.056Z,9.681154
2022-10-05T08:10:48.035Z,9.681224
2022-10-05T08:11:48.423Z,9.681101
2022-10-05T08:12:48.032Z,9.681041
2022-10-05T08:13:48.020Z,9.680972
2022-10-05T08:14:48.011Z,9.681040
2022-10-05T08:15:48.048Z,9.681005
2022-10-05T08:16:48.001Z,9.681075
2022-10-05T08:17:48.001Z,9.681042
2022-10-05T08:18:47.974Z,9.681061
2022-10-05T08:19:47.954Z,9.681002
2022-10-05T08:20:47.962Z,9.680948
2022-10-05T08:21:48.266Z,9.680990
2022-10-05T08:22:47.941Z,9.680999
2022-10-05T08:23:47.921Z,9.680904
2022-10-05T08:24:47.919Z,9.680932
2022-10-05T08:25:47.924Z,9.681083
2022-10-05T08:26:47.911Z,9.681096
2022-10-05T08:27:47.890Z,9.681282
2022-10-05T08:28:47.887Z,9.681323
2022-10-05T08:29:47.878Z,9.681334
2022-10-05T08:30:47.898Z,9.681392
2022-10-05T08:31:48.041Z,9.681119
2022-10-05T08:32:47.894Z,9.681105
2022-10-05T08:33:47.846Z,9.680871
2022-10-05T08:34:47.841Z,9.680903
2022-10-05T08:35:47.829Z,9.680802
2022-10-05T08:36:51.604Z,9.681136
2022-10-05T08:37:47.811Z,9.681136
2022-10-05T08:38:47.811Z,9.681103
2022-10-05T08:39:47.798Z,9.681044
2022-10-05T08:40:47.872Z,9.681210
2022-10-05T08:41:48.156Z,9.681225
2022-10-05T08:42:47.822Z,9.681344
2022-10-05T08:43:47.810Z,9.681241
2022-10-05T08:44:47.768Z,9.681181
2022-10-05T08:45:47.784Z,9.680982
2022-10-05T08:46:47.734Z,9.680960
2022-10-05T08:47:47.744Z,9.681057
2022-10-05T08:48:47.733Z,9.681118
2022-10-05T08:49:47.725Z,9.681177
2022-10-05T08:50:47.709Z,9.681183
2022-10-05T08:51:48.173Z,9.680938
2022-10-05T08:52:47.722Z,9.681048
2022-10-05T08:53:47.688Z,9.681170
2022-10-05T08:54:47.680Z,9.681470
2022-10-05T08:55:47.668Z,9.681144
2022-10-05T08:56:47.650Z,9.680964
2022-10-05T08:57:47.661Z,9.681020
2022-10-05T08:58:47.669Z,9.681023
2022-10-05T08:59:47.649Z,9.681158
2022-10-05T09:00:47.641Z,9.681267
2022-10-05T09:01:47.904Z,9.680954
2022-10-05T09:02:47.695Z,9.680794
2022-10-05T09:03:47.596Z,9.681234
2022-10-05T09:04:47.600Z,9.681167
2022-10-05T09:05:47.583Z,9.681154
2022-10-05T09:06:47.579Z,9.681173
2022-10-05T09:07:47.568Z,9.680815
2022-10-05T09:08:47.588Z,9.681102
2022-10-05T09:09:47.570Z,9.681149
2022-10-05T09:10:47.543Z,9.681114
2022-10-05T09:11:47.832Z,9.681635
2022-10-05T09:12:47.527Z,9.681407
2022-10-05T09:13:47.518Z,9.681098
2022-10-05T09:15:01.299Z,9.681100
2022-10-05T09:15:48.534Z,9.681239
2022-10-05T09:16:47.493Z,9.681296
2022-10-05T09:17:47.486Z,9.681163
2022-10-05T09:18:47.486Z,9.681236
2022-10-05T09:19:47.509Z,9.680962
2022-10-05T09:20:47.463Z,9.680952
2022-10-05T09:21:47.949Z,9.681242
2022-10-05T09:22:47.449Z,9.681083
2022-10-05T09:23:48.041Z,9.681370
2022-10-05T09:24:54.473Z,9.681105
2022-10-05T09:25:47.422Z,9.681134
2022-10-05T09:26:47.424Z,9.681560
2022-10-05T09:27:47.422Z,9.681027
2022-10-05T09:28:47.398Z,9.681051
2022-10-05T09:29:47.387Z,9.681121
2022-10-05T09:30:47.425Z,9.681278
2022-10-05T09:31:47.815Z,9.681635
2022-10-05T09:32:47.391Z,9.680943
2022-10-05T09:33:47.375Z,9.680608
2022-10-05T09:34:47.373Z,9.681139
2022-10-05T09:35:47.345Z,9.681236
2022-10-05T09:36:47.335Z,9.681045
2022-10-05T09:37:47.334Z,9.680984
2022-10-05T09:38:47.332Z,9.681655
2022-10-05T09:39:47.313Z,9.681613
2022-10-05T09:40:47.319Z,9.680968
2022-10-05T09:41:47.521Z,9.680546
2022-10-05T09:42:47.295Z,9.680713
2022-10-05T09:43:47.277Z,9.681016
2022-10-05T09:44:47.272Z,9.681361
2022-10-05T09:45:47.259Z,9.681061
2022-10-05T09:46:47.269Z,9.681379
2022-10-05T09:47:47.253Z,9.681124
2022-10-05T09:48:47.261Z,9.681140
2022-10-05T09:49:47.223Z,9.681668
2022-10-05T09:50:47.219Z,9.681841
2022-10-05T09:51:47.556Z,9.681231
2022-10-05T09:52:47.216Z,9.680982
2022-10-05T09:53:47.217Z,9.680793
2022-10-05T09:54:47.215Z,9.680637
2022-10-05T09:55:47.169Z,9.680848
2022-10-05T09:56:47.454Z,9.680828
2022-10-05T09:57:49.320Z,9.680757
2022-10-05T09:58:47.145Z,9.681118
2022-10-05T09:59:47.135Z,9.680918
2022-10-05T10:00:54.204Z,9.680892
2022-10-05T10:01:48.472Z,9.680995
2022-10-05T10:02:47.197Z,9.680787
2022-10-05T10:03:47.148Z,9.680877
2022-10-05T10:04:47.103Z,9.680801
2022-10-05T10:05:47.115Z,9.680967
2022-10-05T10:06:47.085Z,9.680989
2022-10-05T10:07:47.080Z,9.680825
2022-10-05T10:08:47.077Z,9.680688
2022-10-05T10:09:47.072Z,9.681037
2022-10-05T10:10:47.087Z,9.681000
2022-10-05T10:11:47.228Z,9.681288
2022-10-05T10:12:47.032Z,9.680978
2022-10-05T10:13:47.031Z,9.681379
2022-10-05T10:14:47.018Z,9.681145
2022-10-05T10:15:47.074Z,9.681099
2022-10-05T10:16:47.032Z,9.681088
2022-10-05T10:17:46.991Z,9.681057
2022-10-05T10:18:46.976Z,9.680975
2022-10-05T10:19:46.979Z,9.680795
2022-10-05T10:20:46.982Z,9.681073
2022-10-05T10:21:47.211Z,9.681132
2022-10-05T10:22:46.950Z,9.681137
2022-10-05T10:23:46.937Z,9.681076
2022-10-05T10:24:46.921Z,9.680931
2022-10-05T10:25:46.918Z,9.681102
2022-10-05T10:26:46.918Z,9.681264
2022-10-05T10:27:51.615Z,9.681287
2022-10-05T10:28:47.897Z,9.681029
2022-10-05T10:29:46.898Z,9.681076
2022-10-05T10:30:46.929Z,9.680933
2022-10-05T10:31:47.185Z,9.680866
2022-10-05T10:32:46.867Z,9.680964
2022-10-05T10:33:46.854Z,9.681027
2022-10-05T10:34:46.849Z,9.680846
2022-10-05T10:35:46.851Z,9.681129
2022-10-05T10:36:47.121Z,9.680645
2022-10-05T10:37:46.863Z,9.681186
2022-10-05T10:38:46.867Z,9.681257
2022-10-05T10:39:46.809Z,9.681285
2022-10-05T10:40:46.798Z,9.681177
2022-10-05T10:41:46.989Z,9.681176
2022-10-05T10:42:46.776Z,9.681383
2022-10-05T10:43:46.785Z,9.681321
2022-10-05T10:44:46.804Z,9.681007
2022-10-05T10:45:46.761Z,9.681159
2022-10-05T10:46:47.242Z,9.681032
2022-10-05T10:47:46.758Z,9.680986
2022-10-05T10:48:46.763Z,9.681000
2022-10-05T10:49:46.723Z,9.680939
2022-10-05T10:50:46.726Z,9.681078
2022-10-05T10:51:46.708Z,9.681068
2022-10-05T10:52:46.720Z,9.681271
2022-10-05T10:53:46.709Z,9.681161
2022-10-05T10:54:46.676Z,9.681168
2022-10-05T10:55:46.672Z,9.681203
2022-10-05T10:56:46.832Z,9.681084
2022-10-05T10:57:46.653Z,9.680940
2022-10-05T10:58:46.658Z,9.681064
2022-10-05T10:59:46.636Z,9.681223
2022-10-05T11:00:46.649Z,9.680868
2022-10-05T11:01:47.021Z,9.681202
2022-10-05T11:02:46.668Z,9.681172
2022-10-05T11:03:46.630Z,9.680883
2022-10-05T11:04:46.595Z,9.681314
2022-10-05T11:05:48.785Z,9.681234
2022-10-05T11:06:46.577Z,9.680512
2022-10-05T11:07:46.586Z,9.681109
2022-10-05T11:08:46.568Z,9.681055
2022-10-05T11:09:46.551Z,9.680748
2022-10-05T11:10:46.566Z,9.680614
2022-10-05T11:11:46.984Z,9.680821
2022-10-05T11:12:46.564Z,9.679941
2022-10-05T11:13:46.516Z,9.678693
2022-10-05T11:14:46.513Z,9.677929
2022-10-05T11:15:46.637Z,9.677844
2022-10-05T11:16:46.819Z,9.677476
2022-10-05T11:17:46.482Z,9.676489
2022-10-05T11:18:46.495Z,9.679057
2022-10-05T11:20:02.953Z,9.680253
2022-10-05T11:20:47.456Z,9.680513
2022-10-05T11:21:46.446Z,9.680943
2022-10-05T11:22:46.464Z,9.680842
2022-10-05T11:23:46.428Z,9.681157
2022-10-05T11:24:46.417Z,9.681142
2022-10-05T11:25:46.416Z,9.680882
2022-10-05T11:26:46.641Z,9.681094
2022-10-05T11:27:46.395Z,9.681134
2022-10-05T11:28:46.412Z,9.681166
2022-10-05T11:29:46.381Z,9.681311
2022-10-05T11:30:50.282Z,9.681225
2022-10-05T11:31:46.797Z,9.681198
2022-10-05T11:32:46.351Z,9.681177
2022-10-05T11:33:46.344Z,9.681212
2022-10-05T11:34:46.364Z,9.681295
2022-10-05T11:35:46.331Z,9.681194
2022-10-05T11:36:46.318Z,9.681196
2022-10-05T11:37:46.318Z,9.681071
2022-10-05T11:38:46.319Z,9.680924
2022-10-05T11:39:46.319Z,9.680574
2022-10-05T11:40:46.294Z,9.680795
2022-10-05T11:41:46.656Z,9.681848
2022-10-05T11:42:46.272Z,9.681467
2022-10-05T11:43:46.268Z,9.681061
2022-10-05T11:44:46.276Z,9.681043